Terminal Aerodrome Forecast
Issued by NWS Upton, NY

Home | Current Version | Previous Version | Text Only | Print | Product List | Glossary On
Versions: 1 2 3 4 5 6 7 8 9 10 11 12 13 14 15 16 17 18 19 20 21 22 23 24 25 26
000
FTUS41 KOKX 292300
TAFJFK
TAF
KJFK 292337Z 3000/3106 18009KT P6SM BKN025 BKN040
     FM300400 20011KT 4SM -SN SCT015 BKN025
      TEMPO 3004/3007 BKN015
     FM301100 25010KT 1SM -SN BKN007
     FM301600 31015G23KT P6SM VCSH SCT015 BKN025
     FM301800 31017G26KT P6SM SCT025 BKN035
     FM302200 31022G32KT P6SM SCT030 SCT250=

USA.gov is the U.S. government's official web portal to all federal, state and local government web resources and services.